Time;durP1;ratioP1;P1;durP2;ratioP2;P2;SDS_P1;SDS_P2;PMS_P1;PMS_P2;Temp;Humidity;BMP_temperature;BMP_pressure;BME280_temperature;BME280_humidity;BME280_pressure;Samples;Min_cycle;Max_cycle;Signal;HPM_P1;HPM_P2
2021/03/03 00:01:14;;;;;;;4.10;2.42;;;;;;;26.13;28.66;97891.50;4988300;28;20042;-30
2021/03/03 00:03:40;;;;;;;4.57;2.70;;;;;;;26.13;28.50;97891.50;4999848;28;20037;-34
2021/03/03 00:06:05;;;;;;;4.13;2.55;;;;;;;26.13;28.57;97886.25;5000644;28;20018;-36
2021/03/03 00:08:31;;;;;;;5.13;2.58;;;;;;;26.12;28.46;97890.63;4996993;28;20383;-34
2021/03/03 00:10:56;;;;;;;3.33;2.60;;;;;;;26.13;28.46;97896.75;5001841;28;20044;-32
2021/03/03 00:13:22;;;;;;;4.72;2.40;;;;;;;26.12;28.44;97893.28;4980020;28;20100;-32
2021/03/03 00:15:47;;;;;;;5.85;2.83;;;;;;;26.12;28.54;97889.81;4988312;28;20044;-32
2021/03/03 00:18:12;;;;;;;3.83;2.67;;;;;;;26.12;28.64;97898.53;5001507;28;20030;-30
2021/03/03 00:20:38;;;;;;;5.35;2.80;;;;;;;26.12;28.45;97895.06;4997434;28;20585;-31
2021/03/03 00:23:03;;;;;;;3.45;2.33;;;;;;;26.11;28.44;97894.19;4999754;28;20038;-32
2021/03/03 00:25:28;;;;;;;3.30;2.40;;;;;;;26.11;28.49;97888.94;4998315;28;20040;-32
2021/03/03 00:27:54;;;;;;;3.65;2.15;;;;;;;26.10;28.40;97888.06;5000299;28;20034;-32
2021/03/03 00:30:19;;;;;;;4.07;2.75;;;;;;;26.10;28.38;97890.69;4990485;28;20038;-32
2021/03/03 00:32:45;;;;;;;3.03;2.33;;;;;;;26.09;28.41;97889.00;5003432;28;20061;-31
2021/03/03 00:35:11;;;;;;;3.72;2.53;;;;;;;26.09;28.57;97881.09;5001043;28;20121;-34
2021/03/03 00:37:36;;;;;;;4.05;2.70;;;;;;;26.09;28.58;97886.34;5002374;28;20116;-35
2021/03/03 00:40:03;;;;;;;3.42;2.40;;;;;;;26.08;28.43;97884.66;4996197;28;20103;-34
2021/03/03 00:42:29;;;;;;;3.47;2.13;;;;;;;26.09;28.38;97888.16;5001359;28;20049;-30
2021/03/03 00:44:54;;;;;;;2.13;1.92;;;;;;;26.08;28.59;97889.91;5000189;28;20033;-31
2021/03/03 00:47:19;;;;;;;3.35;2.35;;;;;;;26.08;28.63;97889.03;4999970;28;20050;-32
2021/03/03 00:49:45;;;;;;;2.95;2.10;;;;;;;26.08;28.40;97884.66;4998825;28;20022;-32
2021/03/03 00:52:10;;;;;;;3.08;2.22;;;;;;;26.07;28.50;97888.19;5002520;28;20505;-32
2021/03/03 00:54:36;;;;;;;3.47;2.28;;;;;;;26.07;28.71;97882.94;5001855;28;20692;-32
2021/03/03 00:57:01;;;;;;;3.47;1.92;;;;;;;26.06;28.45;97883.88;5000245;28;20030;-36
2021/03/03 00:59:26;;;;;;;3.42;2.08;;;;;;;26.07;28.57;97876.81;5002653;28;20410;-33
2021/03/03 01:01:52;;;;;;;4.35;2.30;;;;;;;26.06;28.44;97878.63;5001816;28;20042;-32
2021/03/03 01:04:17;;;;;;;3.20;2.10;;;;;;;26.06;28.56;97878.63;5004397;28;20498;-32
2021/03/03 01:06:42;;;;;;;2.63;1.80;;;;;;;26.06;28.63;97878.63;5006990;28;20032;-33
2021/03/03 01:09:08;;;;;;;2.70;2.28;;;;;;;26.05;28.51;97883.91;5000442;28;20397;-34
2021/03/03 01:11:33;;;;;;;2.42;1.70;;;;;;;26.05;28.45;97874.25;5007082;28;20021;-33
2021/03/03 01:13:58;;;;;;;3.95;1.90;;;;;;;26.05;28.59;97874.25;5003506;28;20041;-31
2021/03/03 01:16:24;;;;;;;3.30;2.20;;;;;;;26.04;28.45;97875.16;5004683;28;20421;-33
2021/03/03 01:18:49;;;;;;;3.17;2.00;;;;;;;26.03;28.40;97870.84;5003299;28;20107;-31
2021/03/03 01:21:15;;;;;;;2.78;1.90;;;;;;;26.04;28.54;97871.69;4988297;28;20026;-32
2021/03/03 01:23:40;;;;;;;3.55;2.00;;;;;;;26.03;28.51;97875.22;5001727;28;20021;-34
2021/03/03 01:26:05;;;;;;;3.08;1.90;;;;;;;26.02;28.60;97871.75;5002465;28;20034;-32
2021/03/03 01:28:31;;;;;;;2.28;1.90;;;;;;;26.02;28.59;97869.13;5005756;28;20030;-34
2021/03/03 01:30:56;;;;;;;2.63;1.92;;;;;;;26.02;28.64;97863.88;5001331;28;20042;-31
2021/03/03 01:33:26;;;;;;;2.35;1.77;;;;;;;26.02;28.57;97863.88;5004085;28;20034;-33
2021/03/03 01:35:51;;;;;;;2.33;1.90;;;;;;;26.00;28.61;97855.19;5002496;28;20433;-32
2021/03/03 01:38:16;;;;;;;2.45;1.63;;;;;;;26.01;28.61;97851.63;4999579;28;20038;-31
2021/03/03 01:40:42;;;;;;;3.03;2.10;;;;;;;26.01;28.61;97856.06;4997405;28;20022;-33
2021/03/03 01:43:07;;;;;;;2.65;1.90;;;;;;;26.00;28.47;97855.19;5008840;28;20037;-32
2021/03/03 01:45:32;;;;;;;2.33;1.70;;;;;;;26.00;28.61;97854.34;5001391;28;20042;-33
2021/03/03 01:47:58;;;;;;;2.47;1.92;;;;;;;25.99;28.49;97858.72;4985363;28;20021;-32
2021/03/03 01:50:23;;;;;;;3.10;1.80;;;;;;;25.98;28.51;97851.78;5002871;28;20037;-31
2021/03/03 01:52:49;;;;;;;2.85;1.75;;;;;;;26.00;28.51;97846.47;5000549;28;20409;-35
2021/03/03 01:55:14;;;;;;;3.03;1.92;;;;;;;25.98;28.39;97846.53;5006396;28;20584;-33
2021/03/03 01:57:39;;;;;;;2.08;1.70;;;;;;;25.98;28.69;97845.66;4999074;28;20034;-30
2021/03/03 02:00:06;;;;;;;3.83;2.10;;;;;;;25.97;28.64;97839.53;4986851;28;20029;-30
2021/03/03 02:02:32;;;;;;;4.45;1.98;;;;;;;25.96;28.48;97843.94;5006504;28;20034;-32
2021/03/03 02:04:57;;;;;;;2.05;1.63;;;;;;;25.95;28.56;97836.13;4995602;28;20528;-31
2021/03/03 02:07:45;;;;;;;3.00;1.80;;;;;;;25.95;28.43;97838.75;5004256;28;20034;-32
2021/03/03 02:10:23;;;;;;;3.67;1.95;;;;;;;25.95;28.68;97836.13;4983680;28;20506;-34
2021/03/03 02:13:11;;;;;;;2.53;1.70;;;;;;;25.92;28.62;97837.09;4999361;28;20033;-33
2021/03/03 02:15:38;;;;;;;2.47;1.65;;;;;;;25.93;28.74;97838.78;5002956;28;20042;-36
2021/03/03 02:18:04;;;;;;;2.33;1.60;;;;;;;25.93;28.59;97832.72;4979914;28;20029;-31
2021/03/03 02:20:32;;;;;;;2.08;1.60;;;;;;;25.92;28.36;97837.09;4982163;28;20040;-33
2021/03/03 02:23:17;;;;;;;2.55;1.83;;;;;;;25.92;28.52;97841.47;4965689;28;20049;-32
2021/03/03 02:25:43;;;;;;;2.53;1.98;;;;;;;25.92;28.56;97841.47;5005041;28;20493;-35
2021/03/03 02:28:08;;;;;;;2.17;1.70;;;;;;;25.92;28.56;97849.34;4965283;28;20065;-33
2021/03/03 02:30:39;;;;;;;3.28;1.48;;;;;;;25.91;28.66;97850.28;4965524;28;20520;-31
2021/03/03 02:33:04;;;;;;;3.42;1.90;;;;;;;25.92;28.53;97846.72;4979660;28;20504;-34
2021/03/03 02:35:30;;;;;;;2.70;1.75;;;;;;;25.90;28.72;97854.66;4985838;28;20038;-32
2021/03/03 02:37:57;;;;;;;1.73;1.42;;;;;;;25.89;28.57;97846.88;4985917;28;20033;-33
2021/03/03 02:40:22;;;;;;;4.28;1.90;;;;;;;25.90;28.64;97848.56;4991255;28;20440;-31
2021/03/03 02:42:48;;;;;;;1.67;1.40;;;;;;;25.89;28.45;97846.88;4982880;28;20017;-31
2021/03/03 02:45:16;;;;;;;1.65;1.50;;;;;;;25.89;28.58;97836.34;4973578;28;20033;-32
2021/03/03 02:47:42;;;;;;;2.13;1.60;;;;;;;25.88;28.54;97832.88;4995569;28;20064;-35
2021/03/03 02:50:08;;;;;;;2.15;1.60;;;;;;;25.89;28.50;97833.72;4994267;28;20029;-35
2021/03/03 02:52:50;;;;;;;1.90;1.58;;;;;;;25.89;28.59;97831.09;4977562;28;20026;-32
2021/03/03 02:55:15;;;;;;;2.22;1.70;;;;;;;25.88;28.48;97830.25;4998508;28;21369;-36
2021/03/03 02:57:41;;;;;;;2.08;1.60;;;;;;;25.87;28.68;97831.16;4988442;28;20029;-30
2021/03/03 03:00:07;;;;;;;1.77;1.55;;;;;;;25.87;28.57;97822.41;4995291;28;20029;-33
2021/03/03 03:02:32;;;;;;;1.90;1.52;;;;;;;25.87;28.66;97827.66;4976779;28;20037;-32
2021/03/03 03:04:58;;;;;;;3.08;1.90;;;;;;;25.86;28.75;97820.72;4962034;28;20026;-36
2021/03/03 03:07:23;;;;;;;2.00;1.45;;;;;;;25.86;28.68;97820.72;4965021;28;20079;-34
2021/03/03 03:09:49;;;;;;;2.53;1.73;;;;;;;25.85;28.70;97829.50;4986878;28;20096;-31
2021/03/03 03:12:15;;;;;;;1.63;1.42;;;;;;;25.86;28.73;97820.72;4999762;28;20049;-34
2021/03/03 03:14:41;;;;;;;2.67;1.55;;;;;;;25.84;28.73;97815.50;4981179;28;20022;-32
2021/03/03 03:17:06;;;;;;;2.60;1.80;;;;;;;25.85;28.51;97819.00;4980668;28;20042;-35
2021/03/03 03:19:34;;;;;;;2.45;1.80;;;;;;;25.83;28.68;97817.25;4967363;28;20111;-31
2021/03/03 03:22:00;;;;;;;2.75;1.52;;;;;;;25.84;28.70;97820.75;4991438;28;20758;-37
2021/03/03 03:24:25;;;;;;;2.05;1.50;;;;;;;25.83;28.64;97822.53;5002160;28;20050;-31
2021/03/03 03:26:51;;;;;;;1.95;1.70;;;;;;;25.82;28.69;97814.72;4969593;28;20034;-35
2021/03/03 03:29:16;;;;;;;4.13;1.67;;;;;;;25.83;28.70;97826.94;4977665;28;20034;-32
2021/03/03 03:31:43;;;;;;;2.80;1.40;;;;;;;25.82;28.67;97820.81;5000945;28;20044;-31
2021/03/03 03:34:10;;;;;;;1.95;1.40;;;;;;;25.80;28.67;97822.66;4960045;28;20410;-31
2021/03/03 03:36:36;;;;;;;2.20;1.70;;;;;;;25.81;28.64;97818.25;4978101;28;20116;-33
2021/03/03 03:39:03;;;;;;;2.05;1.65;;;;;;;25.81;28.68;97829.59;4987771;28;20032;-31
2021/03/03 03:41:29;;;;;;;1.88;1.38;;;;;;;25.81;28.62;97826.97;5000809;28;20029;-36
2021/03/03 03:43:56;;;;;;;2.28;1.70;;;;;;;25.80;28.84;97825.28;4967099;28;20034;-31
2021/03/03 03:46:22;;;;;;;2.20;1.65;;;;;;;25.80;28.62;97822.66;4980788;28;20653;-31
2021/03/03 03:48:47;;;;;;;2.08;1.58;;;;;;;25.79;28.63;97826.19;4979791;28;20026;-32
2021/03/03 03:51:12;;;;;;;1.70;1.60;;;;;;;25.78;28.66;97840.22;4972424;28;20596;-31
2021/03/03 03:53:38;;;;;;;1.60;1.40;;;;;;;25.79;28.73;97841.97;4977458;28;20034;-32
2021/03/03 03:56:06;;;;;;;2.08;1.45;;;;;;;25.77;28.73;97843.75;5000836;28;20057;-34
2021/03/03 03:58:31;;;;;;;1.90;1.33;;;;;;;25.79;28.60;97847.19;4978852;28;20026;-35
2021/03/03 04:00:57;;;;;;;2.00;1.60;;;;;;;25.78;28.66;97844.63;4996374;28;20092;-31
2021/03/03 04:03:22;;;;;;;2.88;1.60;;;;;;;25.78;28.99;97847.25;4993905;28;20033;-34
2021/03/03 04:05:47;;;;;;;1.45;1.30;;;;;;;25.77;29.07;97842.91;4991012;28;20042;-33
2021/03/03 04:08:13;;;;;;;1.85;1.30;;;;;;;25.77;28.68;97843.75;4999286;28;20048;-31
2021/03/03 04:10:38;;;;;;;1.98;1.38;;;;;;;25.77;28.84;97842.91;5002571;28;20041;-32
2021/03/03 04:13:03;;;;;;;2.38;1.50;;;;;;;25.76;28.72;97847.31;5002230;28;20038;-33
2021/03/03 04:15:29;;;;;;;7.22;1.70;;;;;;;25.76;28.76;97849.06;4993200;28;20050;-32
2021/03/03 04:17:54;;;;;;;2.28;1.48;;;;;;;25.76;28.71;97852.56;4998394;28;20509;-32
2021/03/03 04:20:20;;;;;;;2.35;1.48;;;;;;;25.75;28.78;97845.59;5000209;28;20026;-31
2021/03/03 04:22:45;;;;;;;2.15;1.33;;;;;;;25.74;28.73;97843.88;4994083;28;20034;-31
2021/03/03 04:25:12;;;;;;;1.90;1.42;;;;;;;25.75;28.88;97849.97;5004472;28;20037;-32
2021/03/03 04:27:38;;;;;;;2.38;1.20;;;;;;;25.74;28.82;97843.88;4984445;28;20566;-31
2021/03/03 04:30:05;;;;;;;1.95;1.40;;;;;;;25.74;28.85;97854.38;4999652;28;20152;-29
2021/03/03 04:32:33;;;;;;;1.48;1.23;;;;;;;25.73;28.89;97847.41;4980978;28;20038;-32
2021/03/03 04:34:58;;;;;;;2.33;1.45;;;;;;;25.73;28.86;97847.41;5008282;28;20021;-31
2021/03/03 04:37:23;;;;;;;2.70;1.35;;;;;;;25.72;28.79;97840.44;4985152;28;20425;-33
2021/03/03 04:39:49;;;;;;;2.22;1.60;;;;;;;25.72;28.80;97840.44;4994280;28;20026;-32
2021/03/03 04:42:14;;;;;;;1.52;1.35;;;;;;;25.71;28.77;97838.75;5002972;28;20125;-32
2021/03/03 04:44:40;;;;;;;1.73;1.23;;;;;;;25.71;28.87;97838.75;4997115;28;20026;-31
2021/03/03 04:47:05;;;;;;;1.50;1.33;;;;;;;25.71;28.68;97838.75;5005313;28;20595;-32
2021/03/03 04:49:30;;;;;;;1.38;1.27;;;;;;;25.70;28.69;97837.00;5002332;28;20026;-31
2021/03/03 04:51:56;;;;;;;2.95;1.30;;;;;;;25.70;28.78;97837.88;5001857;28;20026;-31
2021/03/03 04:54:21;;;;;;;1.92;1.33;;;;;;;25.70;28.78;97843.13;5002407;28;20047;-33
2021/03/03 04:56:46;;;;;;;3.42;1.50;;;;;;;25.69;28.76;97841.41;5006729;28;20025;-31
2021/03/03 04:59:12;;;;;;;4.07;1.30;;;;;;;25.70;28.92;97839.63;5004648;28;20033;-33
2021/03/03 05:01:37;;;;;;;1.45;1.25;;;;;;;25.69;28.69;97835.31;5002359;28;20112;-31
2021/03/03 05:04:03;;;;;;;1.67;1.52;;;;;;;25.68;28.70;97836.22;5001997;28;20030;-33
2021/03/03 05:06:28;;;;;;;1.67;1.42;;;;;;;25.68;28.84;97849.34;5005410;28;20040;-33
2021/03/03 05:08:54;;;;;;;1.40;1.30;;;;;;;25.67;28.82;97840.59;4997990;28;20026;-33
2021/03/03 05:11:21;;;;;;;2.67;1.85;;;;;;;25.66;28.86;97831.03;5001111;28;20029;-34
2021/03/03 05:13:47;;;;;;;15.85;4.80;;;;;;;25.66;27.67;97831.03;5002628;28;20053;-32
2021/03/03 05:16:12;;;;;;;8.15;2.38;;;;;;;25.65;28.25;97825.81;4999418;28;20422;-31
2021/03/03 05:18:37;;;;;;;3.13;2.00;;;;;;;25.63;28.73;97820.63;5004837;28;20026;-37
2021/03/03 05:21:03;;;;;;;3.42;2.10;;;;;;;25.63;28.72;97819.78;4979457;28;20449;-31
2021/03/03 05:23:29;;;;;;;2.55;1.73;;;;;;;25.62;28.65;97812.84;4997248;28;20066;-34
2021/03/03 05:25:55;;;;;;;3.17;1.70;;;;;;;25.61;28.65;97816.34;4999995;28;20026;-32
2021/03/03 05:28:20;;;;;;;1.60;1.50;;;;;;;25.61;28.68;97811.09;4990183;28;20045;-32
2021/03/03 05:30:46;;;;;;;3.50;1.75;;;;;;;25.60;28.94;97814.63;4999978;28;20092;-31
2021/03/03 05:33:11;;;;;;;1.83;1.63;;;;;;;25.60;28.94;97812.88;5003383;28;20026;-31
2021/03/03 05:35:36;;;;;;;2.40;1.60;;;;;;;25.60;28.75;97812.88;5004463;28;20029;-31
2021/03/03 05:38:02;;;;;;;2.28;1.52;;;;;;;25.60;28.71;97810.25;4999399;28;20502;-32
2021/03/03 05:40:27;;;;;;;2.35;1.52;;;;;;;25.60;28.99;97814.63;4998130;28;20060;-31
2021/03/03 05:42:53;;;;;;;2.95;1.65;;;;;;;25.61;28.80;97821.59;5002706;28;20485;-32
2021/03/03 05:45:19;;;;;;;2.47;1.50;;;;;;;25.59;28.73;97818.19;4996463;28;20026;-32
2021/03/03 05:47:44;;;;;;;1.98;1.40;;;;;;;25.57;28.97;97821.72;4990885;28;20401;-32
2021/03/03 05:50:11;;;;;;;1.55;1.38;;;;;;;25.58;28.63;97822.56;4967955;28;20033;-33
2021/03/03 05:52:36;;;;;;;2.10;1.58;;;;;;;25.55;28.81;97820.88;4970554;28;20494;-31
2021/03/03 05:55:03;;;;;;;2.83;1.60;;;;;;;25.57;28.76;97821.72;4963247;28;20106;-36
2021/03/03 05:57:30;;;;;;;1.60;1.35;;;;;;;25.59;28.97;97823.44;4995296;28;20085;-32
2021/03/03 05:59:55;;;;;;;1.88;1.25;;;;;;;25.56;28.91;97830.50;4998447;28;20470;-32
2021/03/03 06:02:21;;;;;;;2.15;1.40;;;;;;;25.57;28.65;97820.84;4996812;28;20038;-33
2021/03/03 06:04:48;;;;;;;1.48;1.27;;;;;;;25.57;28.90;97821.72;4987431;28;20037;-31
2021/03/03 06:07:13;;;;;;;1.70;1.25;;;;;;;25.57;29.02;97832.22;4982151;28;20493;-33
2021/03/03 06:09:38;;;;;;;1.83;1.50;;;;;;;25.57;28.61;97839.22;4966265;28;20026;-33
2021/03/03 06:12:04;;;;;;;2.13;1.40;;;;;;;25.56;28.98;97840.16;5004208;28;20037;-32
2021/03/03 06:14:30;;;;;;;2.65;1.45;;;;;;;25.56;28.90;97845.41;5003532;28;20018;-34
2021/03/03 06:16:55;;;;;;;1.70;1.30;;;;;;;25.55;28.90;97841.03;4999560;28;20073;-33
2021/03/03 06:19:20;;;;;;;1.50;1.30;;;;;;;25.55;28.87;97849.75;5000039;28;20057;-33
2021/03/03 06:21:46;;;;;;;1.92;1.60;;;;;;;25.55;28.85;97838.41;4999205;28;20092;-32
2021/03/03 06:24:12;;;;;;;1.48;1.30;;;;;;;25.54;28.88;97837.53;4997926;28;20033;-32
2021/03/03 06:26:57;;;;;;;2.63;1.38;;;;;;;25.54;28.84;97837.53;5001007;28;20115;-32
2021/03/03 06:29:24;;;;;;;3.00;1.33;;;;;;;25.53;28.91;97841.09;5000749;28;20026;-36
2021/03/03 06:31:49;;;;;;;1.45;1.30;;;;;;;25.52;28.94;97836.72;5003415;28;20411;-32
2021/03/03 06:34:17;;;;;;;1.75;1.35;;;;;;;25.53;28.83;97838.47;4996207;28;20037;-33
2021/03/03 06:37:05;;;;;;;1.90;1.30;;;;;;;25.52;28.95;97844.59;4997962;28;20552;-33
2021/03/03 06:39:37;;;;;;;1.83;1.40;;;;;;;25.52;29.10;97839.34;4983647;28;20449;-33
2021/03/03 06:42:06;;;;;;;1.85;1.40;;;;;;;25.51;29.03;97832.38;5000993;28;20037;-32
2021/03/03 06:44:46;;;;;;;2.67;1.45;;;;;;;25.51;29.01;97835.00;4993185;28;20034;-38
2021/03/03 06:47:12;;;;;;;7.53;3.67;;;;;;;25.52;28.72;97849.00;5000447;28;20050;-32
2021/03/03 06:49:37;;;;;;;5.25;3.35;;;;;;;25.50;27.98;97849.06;5002871;28;20029;-33
2021/03/03 06:52:03;;;;;;;2.00;1.60;;;;;;;25.50;28.53;97850.81;4996857;28;20030;-38
2021/03/03 06:54:28;;;;;;;3.78;1.80;;;;;;;25.50;28.76;97845.56;4989835;28;20030;-35
2021/03/03 06:56:54;;;;;;;2.58;1.73;;;;;;;25.50;28.84;97854.31;4999908;28;20030;-33
2021/03/03 06:59:27;;;;;;;2.42;1.80;;;;;;;25.48;28.93;97856.13;4984202;28;20033;-32
2021/03/03 07:02:10;;;;;;;1.83;1.23;;;;;;;25.48;29.02;97852.66;4987571;28;20497;-32
2021/03/03 07:04:37;;;;;;;1.55;1.40;;;;;;;25.48;28.90;97853.53;5001835;28;20033;-30
2021/03/03 07:07:02;;;;;;;2.97;1.75;;;;;;;25.48;28.90;97853.53;4996035;28;20038;-32
2021/03/03 07:09:39;;;;;;;1.98;1.45;;;;;;;25.47;28.95;97851.78;5002935;28;20099;-31
2021/03/03 07:12:06;;;;;;;2.67;1.30;;;;;;;25.47;28.93;97854.41;5001354;28;20100;-33
2021/03/03 07:14:32;;;;;;;2.22;1.45;;;;;;;25.48;28.88;97858.75;5003463;28;20633;-33
2021/03/03 07:17:07;;;;;;;3.75;1.67;;;;;;;25.47;29.06;97856.19;4998470;28;20121;-32
2021/03/03 07:19:34;;;;;;;9.43;1.75;;;;;;;25.46;29.18;97855.31;4991239;28;20109;-32
2021/03/03 07:22:01;;;;;;;11.23;1.98;;;;;;;25.46;28.99;97857.94;4991530;28;20053;-31
2021/03/03 07:24:26;;;;;;;3.15;2.00;;;;;;;25.44;28.93;97862.41;4999667;28;20117;-32
2021/03/03 07:26:52;;;;;;;4.95;2.65;;;;;;;25.44;28.61;97862.41;4994456;28;20515;-30
2021/03/03 07:29:17;;;;;;;8.18;2.10;;;;;;;25.42;29.07;97854.59;4993096;28;20036;-33
2021/03/03 07:31:42;;;;;;;12.70;5.20;;;;;;;25.42;28.12;97853.72;5002596;28;20041;-34
2021/03/03 07:34:08;;;;;;;11.85;4.70;;;;;;;25.41;27.96;97862.50;4979998;28;20542;-33
2021/03/03 07:36:38;;;;;;;6.97;3.20;;;;;;;25.40;28.43;97861.63;4992760;28;20026;-35
2021/03/03 07:39:04;;;;;;;3.55;2.58;;;;;;;25.39;28.62;97856.44;4994601;28;20034;-30
2021/03/03 07:41:32;;;;;;;7.22;2.17;;;;;;;25.39;29.03;97853.81;4993147;28;20022;-31
2021/03/03 07:43:57;;;;;;;4.35;3.00;;;;;;;25.37;28.69;97856.50;4958195;28;20032;-32
2021/03/03 07:46:23;;;;;;;10.55;6.43;;;;;;;25.36;26.75;97859.19;4975531;28;20042;-31
2021/03/03 07:48:49;;;;;;;13.68;7.10;;;;;;;25.31;26.04;97849.69;4991462;28;20030;-32
2021/03/03 07:51:14;;;;;;;15.60;7.43;;;;;;;25.27;25.24;97850.72;4977861;28;20125;-31
2021/03/03 07:53:40;;;;;;;17.67;8.55;;;;;;;25.23;25.14;97848.25;4991826;28;20029;-37
2021/03/03 07:56:07;;;;;;;14.93;7.95;;;;;;;25.18;24.75;97848.41;4992893;28;20038;-32
2021/03/03 07:58:33;;;;;;;13.35;8.60;;;;;;;25.13;24.81;97834.59;4993426;28;20032;-37
2021/03/03 08:00:58;;;;;;;14.20;8.48;;;;;;;25.08;24.79;97846.97;4993166;28;20395;-32
2021/03/03 08:03:43;;;;;;;19.25;9.35;;;;;;;25.03;24.67;97853.28;4974580;28;20034;-33
2021/03/03 08:06:20;;;;;;;14.82;7.88;;;;;;;24.98;24.86;97855.16;4993185;28;21233;-31
2021/03/03 08:09:13;;;;;;;16.00;7.60;;;;;;;24.94;24.89;97852.69;4994607;28;20725;-32
2021/03/03 08:11:45;;;;;;;14.65;7.57;;;;;;;24.90;25.02;97858.03;4988421;28;20084;-31
2021/03/03 08:14:39;;;;;;;16.70;8.07;;;;;;;24.86;24.88;97855.59;4993682;28;20044;-32
2021/03/03 08:17:08;;;;;;;16.75;8.23;;;;;;;24.83;24.57;97851.28;4990320;28;20074;-34
2021/03/03 08:19:59;;;;;;;13.40;8.15;;;;;;;24.78;24.35;97851.41;4995056;28;20505;-30
2021/03/03 08:22:50;;;;;;;13.70;8.70;;;;;;;24.75;24.52;97853.28;4993755;28;20042;-31
2021/03/03 08:25:47;;;;;;;17.95;9.55;;;;;;;24.70;24.07;97858.66;4994091;28;20030;-37
2021/03/03 08:28:25;;;;;;;23.95;9.02;;;;;;;24.67;24.20;97850.88;4994515;28;20054;-37
2021/03/03 08:31:11;;;;;;;16.98;8.95;;;;;;;24.63;24.15;97849.25;4995792;28;20042;-32
2021/03/03 08:33:48;;;;;;;14.90;8.95;;;;;;;24.59;24.33;97855.53;4995078;28;20060;-31
2021/03/03 08:36:16;;;;;;;17.33;8.88;;;;;;;24.58;24.41;97851.16;4993489;28;20034;-31
2021/03/03 08:38:42;;;;;;;13.65;8.68;;;;;;;24.56;24.58;97851.22;4991527;28;20034;-30
2021/03/03 08:41:16;;;;;;;19.85;8.80;;;;;;;24.55;24.38;97843.41;4994951;28;20084;-34
2021/03/03 08:43:45;;;;;;;10.65;7.95;;;;;;;24.53;24.58;97848.72;4994997;28;20030;-31
2021/03/03 08:46:19;;;;;;;16.25;8.18;;;;;;;24.50;24.25;97844.41;4994717;28;20042;-32
2021/03/03 08:48:57;;;;;;;15.20;8.60;;;;;;;24.49;24.48;97841.84;4995722;28;20080;-30
2021/03/03 08:51:30;;;;;;;19.52;8.00;;;;;;;24.48;24.46;97838.34;4996299;28;20144;-30
2021/03/03 08:53:56;;;;;;;14.90;7.47;;;;;;;24.49;24.66;97847.09;4989679;28;20053;-37
2021/03/03 08:56:44;;;;;;;18.15;8.38;;;;;;;24.46;24.44;97848.03;4976627;28;20591;-32
2021/03/03 08:59:28;;;;;;;21.27;11.23;;;;;;;24.43;22.58;97848.13;4994146;28;20598;-32
2021/03/03 09:01:56;;;;;;;23.58;11.95;;;;;;;24.31;21.51;97838.00;4992162;28;20132;-32
2021/03/03 09:04:32;;;;;;;27.35;13.55;;;;;;;24.08;20.66;97845.63;4993464;28;20025;-32
2021/03/03 09:07:00;;;;;;;23.25;13.05;;;;;;;23.81;20.96;97850.75;4972978;28;20495;-32
2021/03/03 09:09:26;;;;;;;17.63;12.02;;;;;;;23.59;21.70;97855.72;4996666;28;20034;-31
2021/03/03 09:12:07;;;;;;;27.05;11.00;;;;;;;23.45;22.69;97853.50;4997849;28;20546;-31
2021/03/03 09:14:34;;;;;;;15.77;9.70;;;;;;;23.42;23.46;97846.59;4995697;28;20059;-32
2021/03/03 09:17:04;;;;;;;16.08;9.57;;;;;;;23.41;24.25;97847.47;4993230;28;20057;-32
2021/03/03 09:19:30;;;;;;;16.63;8.82;;;;;;;23.44;24.75;97847.38;4992993;28;20084;-31
2021/03/03 09:21:55;;;;;;;14.60;8.40;;;;;;;23.48;24.76;97851.66;4997892;28;20040;-32
2021/03/03 09:24:21;;;;;;;16.55;8.07;;;;;;;23.54;25.10;97847.13;4995974;28;20033;-33
2021/03/03 09:26:46;;;;;;;12.25;7.45;;;;;;;23.61;25.19;97848.69;4978902;28;20030;-32
2021/03/03 09:29:32;;;;;;;10.20;6.50;;;;;;;23.68;25.40;97842.38;4993803;28;20537;-33
2021/03/03 09:31:58;;;;;;;13.98;6.95;;;;;;;23.78;25.62;97848.22;4996093;28;20123;-31
2021/03/03 09:34:24;;;;;;;10.95;6.57;;;;;;;23.86;25.86;97848.00;4998122;28;20033;-32
2021/03/03 09:37:07;;;;;;;13.68;6.55;;;;;;;23.94;25.84;97842.56;5003126;28;20481;-31
2021/03/03 09:39:33;;;;;;;11.55;5.88;;;;;;;23.97;26.24;97838.09;4982206;28;20035;-33
2021/03/03 09:42:01;;;;;;;9.77;5.65;;;;;;;23.98;26.49;97842.41;4995198;28;20030;-34
2021/03/03 09:44:29;;;;;;;11.77;5.60;;;;;;;23.98;26.74;97839.81;4995861;28;20087;-33
2021/03/03 09:46:58;;;;;;;12.32;5.65;;;;;;;24.01;26.82;97836.22;4992898;28;20046;-34
2021/03/03 09:49:30;;;;;;;14.05;7.28;;;;;;;24.09;26.23;97841.25;4992104;28;20525;-34
2021/03/03 09:51:57;;;;;;;12.85;7.15;;;;;;;24.18;26.13;97833.13;5008243;28;20030;-35
2021/03/03 09:54:35;;;;;;;18.10;7.50;;;;;;;24.30;25.67;97831.06;4985309;28;20425;-34
2021/03/03 09:57:13;;;;;;;14.98;7.47;;;;;;;24.42;25.55;97830.69;5002013;28;20117;-36
2021/03/03 09:59:59;;;;;;;24.27;5.55;;;;;;;24.56;26.39;97822.38;4997898;28;20445;-34
2021/03/03 10:02:34;;;;;;;15.35;5.35;;;;;;;24.68;26.14;97818.53;4991314;28;20038;-33
2021/03/03 10:05:01;;;;;;;9.18;5.30;;;;;;;24.79;25.97;97819.03;4992880;28;20029;-30
2021/03/03 10:07:27;;;;;;;11.30;5.32;;;;;;;24.90;26.05;97815.25;4980740;28;20064;-33
2021/03/03 10:09:54;;;;;;;12.27;5.93;;;;;;;24.99;25.65;97819.31;4978894;28;20033;-32
2021/03/03 10:12:21;;;;;;;11.05;4.95;;;;;;;25.07;25.80;97816.44;4991325;28;20125;-33
2021/03/03 10:15:05;;;;;;;12.43;4.85;;;;;;;25.14;26.05;97817.94;4995579;28;20311;-32
2021/03/03 10:17:32;;;;;;;11.93;4.50;;;;;;;25.18;26.05;97815.16;5000485;28;20127;-32
2021/03/03 10:19:58;;;;;;;16.77;5.22;;;;;;;25.22;26.02;97818.53;5003224;28;20029;-32
2021/03/03 10:22:24;;;;;;;12.45;4.78;;;;;;;25.23;26.06;97812.38;4998895;28;20042;-33
2021/03/03 10:24:57;;;;;;;12.30;4.97;;;;;;;25.26;26.06;97817.53;5004821;28;20041;-32
2021/03/03 10:27:22;;;;;;;11.00;4.30;;;;;;;25.27;26.33;97821.00;5015701;28;20030;-33
2021/03/03 10:29:48;;;;;;;11.73;4.85;;;;;;;25.27;26.33;97821.84;4986388;28;20033;-31
2021/03/03 10:32:14;;;;;;;12.13;4.85;;;;;;;25.27;26.26;97824.47;5005145;28;20504;-34
2021/03/03 10:34:39;;;;;;;10.77;4.47;;;;;;;25.26;26.52;97822.78;4987760;28;20877;-33
2021/03/03 10:37:04;;;;;;;10.80;4.90;;;;;;;25.26;26.37;97820.16;4987841;28;20113;-34
2021/03/03 10:39:30;;;;;;;11.77;4.63;;;;;;;25.26;26.40;97822.78;5006187;28;20508;-36
2021/03/03 10:42:02;;;;;;;17.75;4.50;;;;;;;25.26;26.57;97825.41;5008929;28;20026;-29
2021/03/03 10:44:38;;;;;;;9.27;4.10;;;;;;;25.26;26.81;97825.41;4983420;28;20024;-34
2021/03/03 10:47:03;;;;;;;9.60;4.22;;;;;;;25.24;26.62;97818.50;4979288;28;20263;-34
2021/03/03 10:49:29;;;;;;;12.50;4.05;;;;;;;25.24;26.85;97824.56;4990035;28;20036;-32
2021/03/03 10:51:54;;;;;;;9.68;3.72;;;;;;;25.24;27.13;97818.50;4984663;28;20044;-34
2021/03/03 10:54:33;;;;;;;10.35;5.85;;;;;;;25.23;26.32;97819.38;5007943;28;20034;-31
2021/03/03 10:57:05;;;;;;;20.35;8.35;;;;;;;25.20;25.46;97809.84;5004042;28;20654;-34
2021/03/03 10:59:33;;;;;;;16.25;9.27;;;;;;;25.14;24.01;97807.44;4996089;28;20117;-34
2021/03/03 11:02:01;;;;;;;22.15;10.20;;;;;;;25.07;23.72;97806.81;4994161;28;20469;-35
2021/03/03 11:04:42;;;;;;;16.83;9.18;;;;;;;25.00;23.92;97805.28;4994721;28;20037;-34
2021/03/03 11:07:08;;;;;;;16.40;9.32;;;;;;;24.94;23.75;97798.47;4981483;28;20058;-32
2021/03/03 11:09:36;;;;;;;18.13;9.35;;;;;;;24.89;24.04;97797.78;5003700;28;20758;-33
2021/03/03 11:12:02;;;;;;;23.92;9.30;;;;;;;24.83;23.44;97792.72;5006788;28;20116;-31
2021/03/03 11:14:28;;;;;;;15.90;9.15;;;;;;;24.78;23.58;97795.47;5006950;28;20025;-31
2021/03/03 11:16:58;;;;;;;20.27;10.00;;;;;;;24.73;23.31;97787.78;4999621;28;20537;-31
2021/03/03 11:19:23;;;;;;;28.67;9.95;;;;;;;24.68;23.61;97787.09;4999111;28;20116;-32
2021/03/03 11:21:49;;;;;;;17.23;9.32;;;;;;;24.64;23.93;97788.94;5003734;28;20034;-31
2021/03/03 11:24:14;;;;;;;16.23;9.43;;;;;;;24.60;24.04;97781.22;4987237;28;20034;-32
2021/03/03 11:26:41;;;;;;;20.35;8.68;;;;;;;24.58;24.07;97788.28;5005962;28;20026;-34
2021/03/03 11:29:06;;;;;;;18.27;9.27;;;;;;;24.53;24.17;97778.78;5003021;28;20088;-33
2021/03/03 11:31:32;;;;;;;17.05;9.35;;;;;;;24.50;24.11;97776.28;4983891;28;20050;-32
2021/03/03 11:33:57;;;;;;;18.33;9.52;;;;;;;24.47;24.18;97776.38;4998580;28;20021;-36
2021/03/03 11:36:23;;;;;;;15.90;8.88;;;;;;;24.45;24.09;97766.84;5001961;28;20108;-33